Time;durP1;ratioP1;P1;durP2;ratioP2;P2;SDS_P1;SDS_P2;PMS_P1;PMS_P2;Temp;Humidity;BMP_temperature;BMP_pressure;BME280_temperature;BME280_humidity;BME280_pressure;Samples;Min_cycle;Max_cycle;Signal;HPM_P1;HPM_P2
2023/06/25 00:00:44;;;;;;;;;;;;;;;12.27;65.83;100059.58;1720310;82;20154;-60
2023/06/25 00:03:12;;;;;;;;;;;;;;;12.24;65.97;100062.81;1739255;82;20214;-60
2023/06/25 00:05:38;;;;;;;;;;;;;;;12.24;66.00;100058.42;1730158;82;20195;-60
2023/06/25 00:08:05;;;;;;;;;;;;;;;12.21;66.14;100050.72;1734174;82;20137;-60
2023/06/25 00:10:31;;;;;;;;;;;;;;;12.18;66.24;100053.45;1708589;83;20104;-60
2023/06/25 00:12:57;;;;;;;;;;;;;;;12.16;66.26;100055.32;1689639;84;20506;-60
2023/06/25 00:15:23;;;;;;;;;;;;;;;12.13;66.37;100052.86;1689301;84;20200;-60
2023/06/25 00:17:49;;;;;;;;;;;;;;;12.12;66.32;100052.45;1741579;82;20106;-60
2023/06/25 00:20:16;;;;;;;;;;;;;;;12.07;66.36;100053.13;1722687;82;20171;-60
2023/06/25 00:22:43;;;;;;;;;;;;;;;12.02;66.42;100057.76;1738314;82;20253;-60
2023/06/25 00:25:09;;;;;;;;;;;;;;;11.98;66.49;100050.95;1738223;82;20118;-60
2023/06/25 00:27:35;;;;;;;;;;;;;;;11.93;66.66;100053.81;1733090;82;20318;-60
2023/06/25 00:30:02;;;;;;;;;;;;;;;11.88;66.68;100057.57;1719758;82;20207;-60
2023/06/25 00:32:28;;;;;;;;;;;;;;;11.88;66.85;100053.65;1739621;82;20468;-60
2023/06/25 00:34:57;;;;;;;;;;;;;;;11.86;66.89;100058.47;1733941;81;20169;-57
2023/06/25 00:37:22;;;;;;;;;;;;;;;11.83;66.81;100062.51;1709606;83;20160;-59
2023/06/25 00:39:48;;;;;;;;;;;;;;;11.75;66.77;100060.71;1689550;84;20158;-59
2023/06/25 00:42:16;;;;;;;;;;;;;;;11.67;67.34;100060.69;1689092;84;20160;-59
2023/06/25 00:44:42;;;;;;;;;;;;;;;11.61;67.45;100060.50;1689297;83;20140;-59
2023/06/25 00:47:12;;;;;;;;;;;;;;;11.55;67.51;100060.80;1709537;83;20729;-59
2023/06/25 00:49:37;;;;;;;;;;;;;;;11.51;67.83;100053.98;1702621;82;20143;-59
2023/06/25 00:52:08;;;;;;;;;;;;;;;11.46;67.85;100054.69;1715655;83;20181;-59
2023/06/25 00:54:33;;;;;;;;;;;;;;;11.43;68.07;100049.98;1718640;81;20207;-59
2023/06/25 00:57:03;;;;;;;;;;;;;;;11.39;68.32;100044.48;1712239;82;20156;-60
2023/06/25 00:59:27;;;;;;;;;;;;;;;11.34;68.17;100049.09;1707935;82;20161;-60
2023/06/25 01:01:55;;;;;;;;;;;;;;;11.32;68.25;100044.39;1688364;83;20449;-59
2023/06/25 01:04:26;;;;;;;;;;;;;;;11.28;68.22;100042.81;1725161;82;20107;-59
2023/06/25 01:06:53;;;;;;;;;;;;;;;11.24;68.28;100039.96;1691906;82;20426;-59
2023/06/25 01:09:20;;;;;;;;;;;;;;;11.21;68.35;100038.80;1721799;82;20208;-59
2023/06/25 01:11:53;;;;;;;;;;;;;;;11.20;68.40;100039.69;1734973;82;20381;-60
2023/06/25 01:14:15;;;;;;;;;;;;;;;11.18;68.64;100036.32;1716355;81;20164;-59
2023/06/25 01:16:41;;;;;;;;;;;;;;;11.13;68.62;100038.28;1749484;81;20151;-60
2023/06/25 01:19:07;;;;;;;;;;;;;;;11.07;68.67;100034.18;1748684;81;20470;-59
2023/06/25 01:21:33;;;;;;;;;;;;;;;11.05;68.90;100035.16;1751620;81;20194;-60
2023/06/25 01:24:00;;;;;;;;;;;;;;;11.03;69.08;100037.83;1747360;81;20115;-59
2023/06/25 01:26:26;;;;;;;;;;;;;;;11.01;69.14;100030.97;1750508;81;20303;-59
2023/06/25 01:28:55;;;;;;;;;;;;;;;10.97;69.18;100029.80;1747710;81;20167;-59
2023/06/25 01:31:20;;;;;;;;;;;;;;;10.92;69.25;100030.48;1752858;80;20106;-59
2023/06/25 01:33:46;;;;;;;;;;;;;;;10.90;69.37;100024.47;1749763;81;20119;-59
2023/06/25 01:36:13;;;;;;;;;;;;;;;10.89;69.54;100025.37;1748418;81;20138;-60
2023/06/25 01:38:38;;;;;;;;;;;;;;;10.85;69.59;100023.81;1750627;81;20165;-60
2023/06/25 01:41:06;;;;;;;;;;;;;;;10.85;69.68;100015.98;1747447;81;20545;-59
2023/06/25 01:43:32;;;;;;;;;;;;;;;10.82;69.64;100013.50;1750708;81;20173;-59
2023/06/25 01:45:58;;;;;;;;;;;;;;;10.79;69.51;100012.34;1747714;81;20182;-59
2023/06/25 01:48:25;;;;;;;;;;;;;;;10.76;69.84;100008.55;1749094;81;20492;-59
2023/06/25 01:50:51;;;;;;;;;;;;;;;10.80;70.23;100007.48;1751065;81;20111;-59
2023/06/25 01:53:17;;;;;;;;;;;;;;;10.82;70.36;100005.67;1747325;81;20156;-60
2023/06/25 01:55:43;;;;;;;;;;;;;;;10.83;70.66;100009.97;1747904;81;20174;-59
2023/06/25 01:58:09;;;;;;;;;;;;;;;10.84;70.63;100006.45;1741716;81;20181;-59
2023/06/25 02:00:40;;;;;;;;;;;;;;;10.84;70.66;100014.30;1742503;81;20178;-59
2023/06/25 02:03:04;;;;;;;;;;;;;;;10.85;70.69;100004.69;1712635;83;20155;-59
2023/06/25 02:05:30;;;;;;;;;;;;;;;10.81;70.20;100007.91;1702904;84;20157;-59
2023/06/25 02:07:56;;;;;;;;;;;;;;;10.72;70.06;100007.81;1687916;83;20150;-59
2023/06/25 02:10:23;;;;;;;;;;;;;;;10.66;70.02;100007.24;1702356;82;20197;-60
2023/06/25 02:12:49;;;;;;;;;;;;;;;10.59;70.26;100007.13;1690015;83;20520;-59
2023/06/25 02:15:14;;;;;;;;;;;;;;;10.50;70.09;100013.13;1743804;81;20127;-59
2023/06/25 02:17:40;;;;;;;;;;;;;;;10.46;70.24;100008.94;1711913;82;20219;-59
2023/06/25 02:20:07;;;;;;;;;;;;;;;10.45;70.53;100015.09;1708977;83;20105;-60
2023/06/25 02:22:33;;;;;;;;;;;;;;;10.47;70.90;100015.88;1706872;84;20172;-59
2023/06/25 02:24:59;;;;;;;;;;;;;;;10.49;71.10;100008.80;1704783;84;20124;-60
2023/06/25 02:27:25;;;;;;;;;;;;;;;10.51;71.08;100010.91;1686988;83;20163;-59
2023/06/25 02:29:51;;;;;;;;;;;;;;;10.53;71.05;100009.09;1743299;81;20202;-59
2023/06/25 02:32:17;;;;;;;;;;;;;;;10.52;71.03;100007.83;1743945;81;20486;-59
2023/06/25 02:34:43;;;;;;;;;;;;;;;10.50;70.70;100011.83;1746487;81;20098;-59
2023/06/25 02:37:13;;;;;;;;;;;;;;;10.50;70.83;100007.91;1742247;81;20143;-59
2023/06/25 02:39:40;;;;;;;;;;;;;;;10.50;70.47;100007.04;1746115;81;20178;-59
2023/06/25 02:42:06;;;;;;;;;;;;;;;10.41;70.17;100005.67;1744100;81;20579;-59
2023/06/25 02:44:34;;;;;;;;;;;;;;;10.29;70.47;100012.72;1745739;81;20169;-59
2023/06/25 02:47:00;;;;;;;;;;;;;;;10.22;70.82;100009.92;1716490;83;20177;-59
2023/06/25 02:49:26;;;;;;;;;;;;;;;10.19;71.02;100008.74;1747530;81;20201;-59
2023/06/25 02:51:52;;;;;;;;;;;;;;;10.22;71.46;100002.97;1743826;81;20116;-59
2023/06/25 02:54:18;;;;;;;;;;;;;;;10.30;71.68;100001.36;1743598;80;20141;-60
2023/06/25 02:56:44;;;;;;;;;;;;;;;10.38;71.89;100000.58;1747143;81;20161;-59
2023/06/25 02:59:12;;;;;;;;;;;;;;;10.45;71.90;99996.81;1780194;79;20406;-60
2023/06/25 03:01:38;;;;;;;;;;;;;;;10.52;72.05;99995.62;1708477;84;20419;-60
2023/06/25 03:04:04;;;;;;;;;;;;;;;10.60;72.03;99994.45;1735142;82;20155;-59
2023/06/25 03:06:30;;;;;;;;;;;;;;;10.68;72.07;99988.45;1725158;82;20397;-60
2023/06/25 03:08:56;;;;;;;;;;;;;;;10.73;71.89;99982.58;1727652;82;20148;-59
2023/06/25 03:11:22;;;;;;;;;;;;;;;10.78;71.91;99992.34;1712173;83;20231;-60
2023/06/25 03:13:49;;;;;;;;;;;;;;;10.82;71.82;99991.30;1708624;83;20314;-59
2023/06/25 03:16:15;;;;;;;;;;;;;;;10.85;71.86;99983.80;1707584;84;20198;-59
2023/06/25 03:18:41;;;;;;;;;;;;;;;10.87;71.89;99980.20;1686137;83;20174;-60
2023/06/25 03:21:07;;;;;;;;;;;;;;;10.94;71.88;99985.98;1685875;84;20191;-60
2023/06/25 03:23:33;;;;;;;;;;;;;;;10.98;71.93;99988.41;1708081;82;20190;-59
2023/06/25 03:25:59;;;;;;;;;;;;;;;11.03;72.00;99984.72;1686919;83;20210;-59
2023/06/25 03:28:25;;;;;;;;;;;;;;;11.10;72.19;99991.38;1687532;83;20187;-60
2023/06/25 03:30:51;;;;;;;;;;;;;;;11.16;72.21;99988.48;1684008;85;20155;-59
2023/06/25 03:33:16;;;;;;;;;;;;;;;11.25;72.29;99993.28;1711340;83;20470;-59
2023/06/25 03:35:42;;;;;;;;;;;;;;;11.33;72.25;99991.17;1686714;84;20210;-59
2023/06/25 03:38:10;;;;;;;;;;;;;;;11.39;72.26;99988.27;1685202;84;20178;-59
2023/06/25 03:40:38;;;;;;;;;;;;;;;11.46;72.36;99982.78;1708312;83;20190;-59
2023/06/25 03:43:04;;;;;;;;;;;;;;;11.56;72.67;99985.33;1706443;83;20204;-59
2023/06/25 03:45:30;;;;;;;;;;;;;;;11.70;72.78;99981.59;1687160;83;20175;-59
2023/06/25 03:47:58;;;;;;;;;;;;;;;11.79;72.86;99985.11;1683435;84;20164;-60
2023/06/25 03:50:24;;;;;;;;;;;;;;;11.89;73.08;99993.84;1687488;83;20473;-59
2023/06/25 03:52:52;;;;;;;;;;;;;;;12.00;73.29;99986.31;1708013;82;20143;-60
2023/06/25 03:55:18;;;;;;;;;;;;;;;12.12;73.55;99993.55;1690659;83;20130;-59
2023/06/25 03:57:44;;;;;;;;;;;;;;;12.26;73.63;99988.48;1692313;83;20199;-59
2023/06/25 04:00:11;;;;;;;;;;;;;;;12.40;73.87;99983.02;1690920;83;20111;-59
2023/06/25 04:02:37;;;;;;;;;;;;;;;12.55;73.99;99988.80;1688641;83;20186;-60
2023/06/25 04:05:04;;;;;;;;;;;;;;;12.69;74.17;99985.00;1691193;83;20104;-60
2023/06/25 04:07:32;;;;;;;;;;;;;;;12.84;74.33;99986.44;1717711;82;20180;-59
2023/06/25 04:09:58;;;;;;;;;;;;;;;12.98;74.38;99989.18;1692345;83;20147;-59
2023/06/25 04:12:28;;;;;;;;;;;;;;;13.14;74.59;99982.20;1693043;83;20142;-60
2023/06/25 04:14:52;;;;;;;;;;;;;;;13.34;74.89;99977.69;1687178;83;20103;-60
2023/06/25 04:17:18;;;;;;;;;;;;;;;13.54;75.03;99980.05;1708624;83;20143;-59
2023/06/25 04:19:45;;;;;;;;;;;;;;;13.74;75.21;99972.84;1708665;83;20203;-59
2023/06/25 04:22:11;;;;;;;;;;;;;;;13.94;75.15;99974.34;1688296;84;20170;-59
2023/06/25 04:24:37;;;;;;;;;;;;;;;14.12;75.26;99975.91;1690827;84;20460;-59
2023/06/25 04:27:05;;;;;;;;;;;;;;;14.30;75.53;99974.83;1690935;84;20137;-60
2023/06/25 04:29:33;;;;;;;;;;;;;;;14.51;75.40;99977.98;1732247;81;20093;-60
2023/06/25 04:32:00;;;;;;;;;;;;;;;14.73;75.28;99976.70;1720619;83;20530;-60
2023/06/25 04:34:26;;;;;;;;;;;;;;;14.92;75.19;99975.97;1689724;83;20156;-59
2023/06/25 04:36:56;;;;;;;;;;;;;;;15.09;75.20;99976.72;1715808;83;20136;-60
2023/06/25 04:39:24;;;;;;;;;;;;;;;15.29;75.31;99976.34;1691613;83;20175;-60
2023/06/25 04:41:50;;;;;;;;;;;;;;;15.47;75.09;99969.54;1690791;83;20108;-59
2023/06/25 04:44:18;;;;;;;;;;;;;;;15.64;75.06;99977.20;1716875;83;20108;-60
2023/06/25 04:46:48;;;;;;;;;;;;;;;15.82;74.96;99976.05;1710890;83;20156;-60
2023/06/25 04:49:14;;;;;;;;;;;;;;;16.00;75.04;99974.00;1715588;82;20278;-60
2023/06/25 04:51:41;;;;;;;;;;;;;;;16.17;74.76;99975.52;1729052;82;20192;-60
2023/06/25 04:54:08;;;;;;;;;;;;;;;16.32;74.57;99977.59;1689037;83;20386;-60
2023/06/25 04:56:34;;;;;;;;;;;;;;;16.48;74.70;99980.05;1693194;83;20177;-59
2023/06/25 04:59:00;;;;;;;;;;;;;;;16.64;74.66;99976.75;1708843;84;20432;-60
2023/06/25 05:01:26;;;;;;;;;;;;;;;16.81;74.55;99977.41;1707220;83;20172;-60
2023/06/25 05:03:52;;;;;;;;;;;;;;;16.95;74.45;99982.58;1693247;83;20567;-60
2023/06/25 05:06:19;;;;;;;;;;;;;;;17.09;74.18;99974.53;1678782;85;20178;-60
2023/06/25 05:08:47;;;;;;;;;;;;;;;17.22;74.30;99971.41;1710225;82;20098;-60
2023/06/25 05:11:12;;;;;;;;;;;;;;;17.34;74.00;99971.00;1709644;84;20105;-60
2023/06/25 05:13:38;;;;;;;;;;;;;;;17.47;74.08;99964.34;1731221;82;20276;-60
2023/06/25 05:16:04;;;;;;;;;;;;;;;17.59;73.84;99962.16;1710905;83;20172;-60
2023/06/25 05:18:31;;;;;;;;;;;;;;;17.72;73.88;99958.61;1709050;83;20408;-60
2023/06/25 05:20:57;;;;;;;;;;;;;;;17.85;73.78;99955.00;1708132;84;20097;-60
2023/06/25 05:23:24;;;;;;;;;;;;;;;17.96;73.49;99954.20;1730860;82;20161;-60
2023/06/25 05:25:51;;;;;;;;;;;;;;;18.08;73.44;99955.08;1708036;82;20136;-60
2023/06/25 05:28:16;;;;;;;;;;;;;;;18.23;73.39;99953.08;1708767;84;20175;-60
2023/06/25 05:30:44;;;;;;;;;;;;;;;18.39;73.41;99958.90;1687322;83;20438;-60
2023/06/25 05:33:10;;;;;;;;;;;;;;;18.56;73.21;99949.67;1713904;83;20129;-60
2023/06/25 05:35:36;;;;;;;;;;;;;;;18.70;72.86;99948.61;1707386;84;20168;-60
2023/06/25 05:38:02;;;;;;;;;;;;;;;18.83;72.99;99949.38;1730207;82;20194;-60
2023/06/25 05:40:29;;;;;;;;;;;;;;;18.93;72.51;99950.36;1728139;82;20455;-60
2023/06/25 05:42:55;;;;;;;;;;;;;;;19.04;72.71;99943.36;1728405;82;20149;-60
2023/06/25 05:45:22;;;;;;;;;;;;;;;19.17;72.25;99952.02;1712980;83;20183;-59
2023/06/25 05:47:47;;;;;;;;;;;;;;;19.29;72.19;99945.73;1749440;81;20669;-60
2023/06/25 05:50:13;;;;;;;;;;;;;;;19.43;72.13;99945.46;1749365;81;20194;-60
2023/06/25 05:52:41;;;;;;;;;;;;;;;19.53;71.61;99944.74;1750472;81;20114;-60
2023/06/25 05:55:08;;;;;;;;;;;;;;;19.61;71.50;99937.02;1749697;81;20137;-60
2023/06/25 05:57:34;;;;;;;;;;;;;;;19.64;71.48;99934.12;1750421;81;20150;-60
2023/06/25 06:00:00;;;;;;;;;;;;;;;19.76;71.49;99941.08;1750702;81;20113;-60
2023/06/25 06:02:27;;;;;;;;;;;;;;;19.90;71.33;99940.78;1748518;81;20152;-60
2023/06/25 06:04:53;;;;;;;;;;;;;;;20.06;71.09;99939.52;1749897;81;20115;-60
2023/06/25 06:07:19;;;;;;;;;;;;;;;20.17;70.81;99938.63;1750512;81;20164;-60
2023/06/25 06:09:45;;;;;;;;;;;;;;;20.31;70.61;99939.14;1747321;81;20172;-60
2023/06/25 06:12:11;;;;;;;;;;;;;;;20.48;70.66;99945.66;1750970;81;20154;-59
2023/06/25 06:14:38;;;;;;;;;;;;;;;20.61;69.89;99950.78;1747814;81;20116;-60
2023/06/25 06:17:05;;;;;;;;;;;;;;;20.71;69.96;99946.38;1749336;81;20169;-60
2023/06/25 06:19:32;;;;;;;;;;;;;;;20.88;69.96;99951.55;1748885;81;20170;-60
2023/06/25 06:22:01;;;;;;;;;;;;;;;21.06;69.49;99947.80;1748903;81;20154;-59
2023/06/25 06:24:28;;;;;;;;;;;;;;;21.20;69.38;99944.77;1746600;81;20129;-59
2023/06/25 06:26:54;;;;;;;;;;;;;;;21.31;68.99;99937.65;1746365;81;20130;-59
2023/06/25 06:29:20;;;;;;;;;;;;;;;21.48;68.89;99941.48;1748914;81;20150;-59
2023/06/25 06:31:47;;;;;;;;;;;;;;;21.57;68.38;99938.87;1716071;83;21204;-59
2023/06/25 06:34:14;;;;;;;;;;;;;;;21.72;68.33;99942.45;1685630;84;20170;-59
2023/06/25 06:36:40;;;;;;;;;;;;;;;21.86;68.35;99940.70;1689878;84;20174;-59
2023/06/25 06:39:06;;;;;;;;;;;;;;;22.12;67.85;99940.50;1708587;84;20161;-59
2023/06/25 06:41:32;;;;;;;;;;;;;;;22.32;67.56;99933.83;1686370;84;20134;-59
2023/06/25 06:44:00;;;;;;;;;;;;;;;22.57;67.27;99945.67;1685347;84;20166;-59
2023/06/25 06:46:26;;;;;;;;;;;;;;;22.81;66.63;99942.53;1748023;80;20118;-60
2023/06/25 06:48:52;;;;;;;;;;;;;;;23.13;66.93;99938.63;1710832;83;20168;-59
2023/06/25 06:51:19;;;;;;;;;;;;;;;23.53;66.46;99940.10;1684816;84;20154;-59
2023/06/25 06:53:45;;;;;;;;;;;;;;;23.89;65.71;99941.82;1705891;84;20283;-60
2023/06/25 06:56:11;;;;;;;;;;;;;;;24.11;65.22;99939.65;1709260;84;20412;-61
2023/06/25 06:58:38;;;;;;;;;;;;;;;24.49;65.76;99934.97;1734406;82;20156;-61
2023/06/25 07:01:04;;;;;;;;;;;;;;;25.16;65.11;99936.00;1723261;82;20148;-61
2023/06/25 07:03:31;;;;;;;;;;;;;;;25.59;64.36;99938.63;1691290;83;20093;-62
2023/06/25 07:05:57;;;;;;;;;;;;;;;26.21;63.94;99938.19;1706255;83;20168;-61
2023/06/25 07:08:23;;;;;;;;;;;;;;;27.17;64.92;99934.67;1708065;82;20193;-61
2023/06/25 07:10:49;;;;;;;;;;;;;;;28.51;63.10;99925.31;1686755;84;20209;-62
2023/06/25 07:13:15;;;;;;;;;;;;;;;29.78;62.89;99930.47;1710702;83;20152;-61
2023/06/25 07:15:42;;;;;;;;;;;;;;;30.82;61.61;99930.68;1703383;83;20163;-62
2023/06/25 07:18:08;;;;;;;;;;;;;;;31.49;60.02;99929.11;1698720;83;20145;-61
2023/06/25 07:20:34;;;;;;;;;;;;;;;32.08;59.54;99924.86;1731930;82;20467;-61
2023/06/25 07:23:00;;;;;;;;;;;;;;;33.11;58.48;99933.22;1701992;83;20154;-62
2023/06/25 07:25:26;;;;;;;;;;;;;;;33.98;56.91;99928.14;1698415;83;20495;-61
2023/06/25 07:27:52;;;;;;;;;;;;;;;34.30;55.14;99928.09;1704919;83;20168;-62
2023/06/25 07:30:18;;;;;;;;;;;;;;;34.33;55.59;99922.23;1703169;83;20501;-61
2023/06/25 07:32:44;;;;;;;;;;;;;;;34.95;54.33;99916.28;1687930;84;20150;-59
2023/06/25 07:35:10;;;;;;;;;;;;;;;35.98;53.42;99917.68;1720887;83;20101;-59
2023/06/25 07:37:36;;;;;;;;;;;;;;;37.20;52.46;99922.35;1683698;84;20156;-59
2023/06/25 07:40:06;;;;;;;;;;;;;;;38.31;49.46;99921.82;1712460;82;20143;-61
2023/06/25 07:42:32;;;;;;;;;;;;;;;38.57;48.00;99919.48;1705510;82;20126;-61
2023/06/25 07:45:00;;;;;;;;;;;;;;;38.95;47.35;99916.73;1730314;82;20393;-61
2023/06/25 07:47:26;;;;;;;;;;;;;;;39.81;46.17;99914.66;1687948;83;20105;-61
2023/06/25 07:49:52;;;;;;;;;;;;;;;40.52;44.64;99912.14;1709479;83;20116;-61
2023/06/25 07:52:22;;;;;;;;;;;;;;;41.28;44.43;99914.39;1692356;83;20121;-61
2023/06/25 07:54:48;;;;;;;;;;;;;;;42.09;42.94;99914.75;1688397;84;20165;-61
2023/06/25 07:57:15;;;;;;;;;;;;;;;42.85;41.26;99913.19;1684487;83;20501;-60
2023/06/25 07:59:42;;;;;;;;;;;;;;;43.42;40.06;99909.61;1760467;80;20133;-61
2023/06/25 08:02:08;;;;;;;;;;;;;;;43.95;39.13;99911.71;1707973;82;20098;-61
2023/06/25 08:04:36;;;;;;;;;;;;;;;44.76;37.78;99909.19;1682960;84;20494;-61
2023/06/25 08:07:03;;;;;;;;;;;;;;;45.38;36.85;99916.90;1739378;82;20119;-61
2023/06/25 08:09:28;;;;;;;;;;;;;;;45.75;35.11;99914.66;1743635;80;20146;-62
2023/06/25 08:11:54;;;;;;;;;;;;;;;46.19;34.12;99915.30;1709699;83;20424;-61
2023/06/25 08:14:21;;;;;;;;;;;;;;;46.87;33.26;99910.91;1708260;84;20409;-61
2023/06/25 08:16:47;;;;;;;;;;;;;;;47.19;31.25;99907.16;1690882;83;20106;-61
2023/06/25 08:19:12;;;;;;;;;;;;;;;47.77;30.62;99904.69;1693596;83;20407;-61
2023/06/25 08:21:38;;;;;;;;;;;;;;;48.25;29.83;99910.92;1678479;83;20195;-60
2023/06/25 08:24:05;;;;;;;;;;;;;;;48.99;28.89;99909.61;1745808;82;20194;-61
2023/06/25 08:26:31;;;;;;;;;;;;;;;49.71;27.85;99910.08;1742640;81;20169;-61
2023/06/25 08:28:57;;;;;;;;;;;;;;;50.05;26.65;99911.15;1745123;81;20736;-61
2023/06/25 08:31:24;;;;;;;;;;;;;;;50.13;26.02;99905.55;1742940;81;20169;-62
2023/06/25 08:33:50;;;;;;;;;;;;;;;50.68;25.33;99898.88;1742117;81;20168;-61
2023/06/25 08:36:16;;;;;;;;;;;;;;;51.50;24.76;99897.83;1742603;81;20210;-62
2023/06/25 08:38:43;;;;;;;;;;;;;;;51.70;23.90;99896.97;1740757;81;20188;-59
2023/06/25 08:41:09;;;;;;;;;;;;;;;51.48;22.98;99889.00;1741743;81;20468;-59
2023/06/25 08:43:35;;;;;;;;;;;;;;;51.63;22.67;99888.94;1739800;81;20183;-59
2023/06/25 08:46:02;;;;;;;;;;;;;;;52.16;21.59;99890.55;1716058;82;20201;-59
2023/06/25 08:48:29;;;;;;;;;;;;;;;52.53;21.26;99899.16;1745362;81;20174;-59
2023/06/25 08:50:57;;;;;;;;;;;;;;;53.06;20.63;99892.83;1710997;83;20474;-59
2023/06/25 08:53:27;;;;;;;;;;;;;;;53.50;19.85;99897.05;1703226;84;20120;-59
2023/06/25 08:55:54;;;;;;;;;;;;;;;53.75;19.39;99891.56;1703227;84;20150;-59
2023/06/25 08:58:24;;;;;;;;;;;;;;;53.62;18.99;99887.22;1733809;82;20180;-59
2023/06/25 09:00:52;;;;;;;;;;;;;;;53.52;18.43;99890.53;1733349;82;20162;-59
2023/06/25 09:03:18;;;;;;;;;;;;;;;53.29;18.00;99893.87;1711483;82;20164;-59
2023/06/25 09:05:52;;;;;;;;;;;;;;;52.48;17.60;99893.82;1717189;82;20141;-59
2023/06/25 09:08:19;;;;;;;;;;;;;;;51.93;17.32;99888.19;1717204;82;20117;-59
2023/06/25 09:10:47;;;;;;;;;;;;;;;51.43;16.87;99883.67;1716504;82;20163;-59
2023/06/25 09:13:15;;;;;;;;;;;;;;;50.21;16.91;99890.02;1715845;82;20423;-59
2023/06/25 09:15:41;;;;;;;;;;;;;;;47.87;16.71;99885.06;1708195;83;20157;-58
2023/06/25 09:18:08;;;;;;;;;;;;;;;45.41;17.35;99876.33;1729594;82;20212;-58
2023/06/25 09:20:34;;;;;;;;;;;;;;;44.53;17.51;99881.36;1713021;83;20140;-58
2023/06/25 09:23:04;;;;;;;;;;;;;;;42.95;17.49;99878.56;1710234;84;20097;-58
2023/06/25 09:25:29;;;;;;;;;;;;;;;42.54;17.87;99874.60;1690175;81;20251;-58
2023/06/25 09:27:58;;;;;;;;;;;;;;;42.78;17.95;99873.44;1685496;85;20458;-58
2023/06/25 09:30:24;;;;;;;;;;;;;;;43.64;18.34;99873.46;1710763;83;20523;-59
2023/06/25 09:32:51;;;;;;;;;;;;;;;44.70;18.13;99877.30;1708047;84;20098;-59
2023/06/25 09:35:19;;;;;;;;;;;;;;;44.56;17.75;99878.02;1734059;82;20105;-58
2023/06/25 09:37:45;;;;;;;;;;;;;;;43.22;17.84;99877.60;1737491;81;20176;-58
2023/06/25 09:40:12;;;;;;;;;;;;;;;43.74;18.31;99871.16;1730936;82;20099;-58
2023/06/25 09:42:39;;;;;;;;;;;;;;;44.66;18.48;99876.52;1715678;83;20178;-58
2023/06/25 09:45:07;;;;;;;;;;;;;;;46.47;18.49;99875.27;1686852;84;20123;-59
2023/06/25 09:47:34;;;;;;;;;;;;;;;48.15;18.06;99871.32;1709700;84;20172;-59
2023/06/25 09:50:02;;;;;;;;;;;;;;;49.81;17.41;99876.44;1690608;83;20162;-59
2023/06/25 09:52:29;;;;;;;;;;;;;;;50.88;17.09;99873.64;1711568;82;20428;-58
2023/06/25 09:54:56;;;;;;;;;;;;;;;51.56;16.95;99876.97;1709026;84;20126;-59
2023/06/25 09:57:24;;;;;;;;;;;;;;;52.61;16.68;99882.67;1688247;83;20541;-59
2023/06/25 09:59:50;;;;;;;;;;;;;;;53.59;15.77;99878.17;1687571;84;20159;-59
2023/06/25 10:02:17;;;;;;;;;;;;;;;53.86;15.23;99884.86;1719866;82;20205;-59
2023/06/25 10:04:44;;;;;;;;;;;;;;;54.52;15.24;99880.52;1708581;84;20102;-59
2023/06/25 10:07:10;;;;;;;;;;;;;;;54.09;14.61;99877.51;1714974;83;20119;-59
2023/06/25 10:09:36;;;;;;;;;;;;;;;53.52;14.44;99870.41;1716987;82;20200;-59
2023/06/25 10:12:03;;;;;;;;;;;;;;;54.00;14.52;99874.66;1717973;82;20157;-59
2023/06/25 10:14:37;;;;;;;;;;;;;;;54.22;14.28;99868.42;1718176;82;20228;-60
2023/06/25 10:17:04;;;;;;;;;;;;;;;54.37;13.09;99868.77;1719373;82;20109;-59
2023/06/25 10:19:30;;;;;;;;;;;;;;;54.25;13.47;99870.48;1718922;82;20204;-62
2023/06/25 10:22:07;;;;;;;;;;;;;;;54.85;13.49;99872.27;1712070;82;20103;-59
2023/06/25 10:24:37;;;;;;;;;;;;;;;55.59;13.11;99872.97;1728436;82;20159;-59
2023/06/25 10:27:04;;;;;;;;;;;;;;;56.37;12.81;99871.27;1708418;82;20409;-59
2023/06/25 10:29:32;;;;;;;;;;;;;;;57.09;12.52;99867.42;1689864;83;20159;-59
2023/06/25 10:32:00;;;;;;;;;;;;;;;55.45;12.05;99862.89;1726634;82;20736;-59
2023/06/25 10:34:26;;;;;;;;;;;;;;;55.16;11.98;99865.13;1713078;83;20171;-62
2023/06/25 10:36:52;;;;;;;;;;;;;;;52.69;11.71;99856.09;1709108;83;20123;-60
2023/06/25 10:39:20;;;;;;;;;;;;;;;50.12;12.06;99858.70;1686508;83;20182;-60
2023/06/25 10:41:48;;;;;;;;;;;;;;;47.79;12.31;99853.47;1696980;83;20392;-60
2023/06/25 10:44:15;;;;;;;;;;;;;;;46.62;13.12;99854.25;1688452;84;20139;-59
2023/06/25 10:46:41;;;;;;;;;;;;;;;47.63;13.27;99850.25;1721353;82;20115;-60
2023/06/25 10:49:10;;;;;;;;;;;;;;;47.55;12.78;99842.72;1734643;82;20445;-60
2023/06/25 10:51:37;;;;;;;;;;;;;;;47.93;13.21;99843.69;1733870;82;20149;-60
2023/06/25 10:54:04;;;;;;;;;;;;;;;49.06;13.46;99851.71;1729949;82;20107;-60
2023/06/25 10:56:32;;;;;;;;;;;;;;;50.26;13.12;99853.73;1729790;82;20161;-60
2023/06/25 10:58:58;;;;;;;;;;;;;;;50.78;12.89;99852.06;1726998;82;20427;-61
2023/06/25 11:01:30;;;;;;;;;;;;;;;50.96;12.72;99855.49;1754176;80;20217;-61
2023/06/25 11:03:56;;;;;;;;;;;;;;;49.45;12.52;99854.06;1730622;81;20125;-62
2023/06/25 11:06:23;;;;;;;;;;;;;;;47.13;12.85;99846.22;1745626;82;20180;-61
2023/06/25 11:08:52;;;;;;;;;;;;;;;44.95;13.49;99848.05;1713266;82;20176;-61
2023/06/25 11:11:22;;;;;;;;;;;;;;;45.02;13.80;99845.75;1718585;82;20232;-61
2023/06/25 11:13:50;;;;;;;;;;;;;;;45.80;13.77;99848.94;1719884;82;20160;-61
2023/06/25 11:16:16;;;;;;;;;;;;;;;46.16;13.70;99844.12;1721939;82;20248;-61
2023/06/25 11:18:46;;;;;;;;;;;;;;;45.61;13.44;99844.05;1722444;83;20172;-62
2023/06/25 11:21:13;;;;;;;;;;;;;;;43.27;13.75;99843.20;1722776;82;20180;-61
2023/06/25 11:23:41;;;;;;;;;;;;;;;41.55;14.45;99837.45;1723636;82;20168;-61
2023/06/25 11:26:11;;;;;;;;;;;;;;;41.70;15.12;99833.87;1695763;82;20115;-61
2023/06/25 11:28:38;;;;;;;;;;;;;;;43.72;14.98;99835.72;1712742;83;20120;-61
2023/06/25 11:31:04;;;;;;;;;;;;;;;43.73;14.66;99827.72;1686180;83;20158;-62
2023/06/25 11:33:31;;;;;;;;;;;;;;;42.84;14.70;99816.83;1710391;84;20404;-62
2023/06/25 11:36:09;;;;;;;;;;;;;;;40.98;15.06;99834.34;1729461;82;20123;-62
2023/06/25 11:38:35;;;;;;;;;;;;;;;39.92;15.42;99835.48;1733784;82;20157;-61
2023/06/25 11:41:04;;;;;;;;;;;;;;;39.38;16.00;99835.86;1708156;82;20114;-61
2023/06/25 11:43:36;;;;;;;;;;;;;;;40.38;15.97;99831.64;1711715;83;20113;-62
2023/06/25 11:46:01;;;;;;;;;;;;;;;39.90;15.92;99830.81;1714255;82;20475;-61
2023/06/25 11:48:33;;;;;;;;;;;;;;;39.57;16.28;99821.23;1681779;85;20114;-61
2023/06/25 11:50:58;;;;;;;;;;;;;;;39.96;16.42;99832.48;1737325;82;20097;-61
2023/06/25 11:53:24;;;;;;;;;;;;;;;41.03;16.47;99828.86;1720191;82;20164;-61
2023/06/25 11:55:50;;;;;;;;;;;;;;;41.45;16.26;99823.72;1714816;83;20121;-62
2023/06/25 11:58:16;;;;;;;;;;;;;;;40.02;16.14;99824.58;1749755;81;20150;-62
2023/06/25 12:00:43;;;;;;;;;;;;;;;38.91;17.19;99820.08;1746627;82;20401;-61
2023/06/25 12:03:09;;;;;;;;;;;;;;;37.89;17.17;99817.31;1747923;82;20149;-61
2023/06/25 12:05:36;;;;;;;;;;;;;;;35.72;17.74;99824.70;1751275;82;20190;-61
2023/06/25 12:08:03;;;;;;;;;;;;;;;33.55;18.12;99836.80;1747394;81;20086;-61
2023/06/25 12:10:30;;;;;;;;;;;;;;;31.56;19.93;99837.36;1749163;81;20166;-61
2023/06/25 12:12:56;;;;;;;;;;;;;;;30.96;21.26;99838.05;1751296;81;21176;-62
2023/06/25 12:15:27;;;;;;;;;;;;;;;30.89;21.53;99832.30;1749907;81;20115;-62
2023/06/25 12:17:51;;;;;;;;;;;;;;;30.26;21.36;99844.52;1750701;81;20215;-61
2023/06/25 12:20:17;;;;;;;;;;;;;;;29.43;23.02;99838.81;1748595;81;20152;-61
2023/06/25 12:22:43;;;;;;;;;;;;;;;29.13;24.53;99838.94;1747193;81;20162;-61
2023/06/25 12:25:10;;;;;;;;;;;;;;;29.16;24.11;99843.94;1750094;80;20132;-61
2023/06/25 12:27:39;;;;;;;;;;;;;;;29.14;24.33;99833.87;1750686;81;20242;-61
2023/06/25 12:30:06;;;;;;;;;;;;;;;28.87;24.40;99833.22;1711075;82;20126;-61
2023/06/25 12:32:33;;;;;;;;;;;;;;;28.43;24.97;99831.41;1720715;82;20618;-59
2023/06/25 12:34:59;;;;;;;;;;;;;;;27.85;26.62;99834.66;1730886;82;20165;-61
2023/06/25 12:37:25;;;;;;;;;;;;;;;27.26;26.47;99841.13;1723993;82;20168;-61
2023/06/25 12:39:51;;;;;;;;;;;;;;;26.71;26.48;99838.04;1732550;82;20172;-61
2023/06/25 12:42:26;;;;;;;;;;;;;;;26.30;27.15;99835.49;1725456;82;20087;-61